Humboldt, Arizona
Current Conditions -  °F | °C
As of 3:53 AM on Monday 20 Oct 2014 (Local Time) from KPRC Reporting Station
Clear Clear  
Wind Chill: 47°   Ceiling: Unl
Heat Index: 47°   Visibility: 10mi
Dew Point: 40°   Wind: 0mph
Humidity: 77%   Direction: NA
Pressure: 30.07"   Gusts: NA
Location:  34.5°N, 112.24°W
Report Text: KPRC 201053Z AUTO 00000KT 10SM CLR 08/04 A3007 RMK AO2 SLP121 T00830044
Loading
Personal Weather Stations






























Interactive Weather Map
Tropical Storm Tracking
New forecast layout! Learn more

10-Day Weather Forecast

Advertisements
Track Severe Weather on mobile